Thurgau — HBLF — position and weather

sailwx.info

Track history (hours):
 
Tides and Currents Weather Stations Pressure Air Temp Water Temp Dewpoint Dewpoint Depression Visibility Wind Speed Wind Dir Waves Ship Positions

Thurgau

Last reported at 2015-Aug-02 12:14 UTC. Time now 2015-Aug-02 18:25 UTC.
Position N 37°49' E 025°43'.

Length 180 m; draft 5.8 m.

Type: Cargo ship. MMSI: 269217000.

Date/timePositionNaut miles runAvg speedWind from/ knotsBaromVisibWave heightAir tempDewpointWater temp
2015-Aug-02 12:14N 37°49' E 025°43'710.2
2015-Aug-02 11:33N 37°43' E 025°44'1111.3
2015-Aug-02 10:33N 37°33' E 025°51'1310.7
2015-Aug-02 09:23N 37°21' E 025°57'3511.2
2015-Aug-02 06:16N 36°51' E 026°20'811.2
2015-Aug-02 05:33N 36°45' E 026°27'1211.4
2015-Aug-02 04:32N 36°37' E 026°36'1111.3
2015-Aug-02 03:33N 36°29' E 026°46'1211.6
2015-Aug-02 02:33N 36°20' E 026°56'1212.0
2015-Aug-02 01:33N 36°11' E 027°06'1211.8
2015-Aug-02 00:33N 36°03' E 027°16'1110.9
2015-Aug-01 23:33N 35°55' E 027°25'1010.4
2015-Aug-01 22:33N 35°46' E 027°32'1310.8
2015-Aug-01 21:21N 35°34' E 027°38'  
2015-Jul-26 21:07N 31°10' E 029°51'0 0.0
2015-Jul-26 00:28N 31°10' E 029°51'  
Track history (hours):
 
Tides and Currents Weather Stations Pressure Air Temp Water Temp Dewpoint Dewpoint Depression Visibility Wind Speed Wind Dir Waves Ship Positions

Thurgau

Last reported at 2015-Aug-02 12:14 UTC. Time now 2015-Aug-02 18:25 UTC.
Position N 37°49' E 025°43'.

Length 180 m; draft 5.8 m.

Type: Cargo ship. MMSI: 269217000.

Date/timePositionNaut miles runAvg speedWind from/ knotsBaromVisibWave heightAir tempDewpointWater temp
2015-Aug-02 12:14N 37°49' E 025°43'710.2
2015-Aug-02 11:33N 37°43' E 025°44'1111.3
2015-Aug-02 10:33N 37°33' E 025°51'1310.7
2015-Aug-02 09:23N 37°21' E 025°57'3511.2
2015-Aug-02 06:16N 36°51' E 026°20'811.2
2015-Aug-02 05:33N 36°45' E 026°27'1211.4
2015-Aug-02 04:32N 36°37' E 026°36'1111.3
2015-Aug-02 03:33N 36°29' E 026°46'1211.6
2015-Aug-02 02:33N 36°20' E 026°56'1212.0
2015-Aug-02 01:33N 36°11' E 027°06'1211.8
2015-Aug-02 00:33N 36°03' E 027°16'1110.9
2015-Aug-01 23:33N 35°55' E 027°25'1010.4
2015-Aug-01 22:33N 35°46' E 027°32'1310.8
2015-Aug-01 21:21N 35°34' E 027°38'  
2015-Jul-26 21:07N 31°10' E 029°51'0 0.0
2015-Jul-26 00:28N 31°10' E 029°51'  

Dump ship's entire track history